createdAt,value
2023-01-19T00:01:01.015Z,57.98
2023-01-19T00:03:28.586Z,58.40
2023-01-19T00:05:56.166Z,57.92
2023-01-19T00:08:23.645Z,57.92
2023-01-19T00:13:37.422Z,56.82
2023-01-19T00:16:05.275Z,57.08
2023-01-19T00:18:32.889Z,56.93
2023-01-19T00:21:00.308Z,56.77
2023-01-19T00:23:27.785Z,55.26
2023-01-19T00:25:55.609Z,54.94
2023-01-19T00:28:23.107Z,54.47
2023-01-19T00:30:51.359Z,55.13
2023-01-19T00:33:18.815Z,55.40
2023-01-19T00:35:51.992Z,55.82
2023-01-19T00:38:20.021Z,55.88
2023-01-19T00:40:48.360Z,55.23
2023-01-19T00:43:15.933Z,55.05
2023-01-19T00:45:43.536Z,54.91
2023-01-19T00:48:11.112Z,55.79
2023-01-19T00:50:45.955Z,55.45
2023-01-19T00:53:13.457Z,56.34
2023-01-19T00:55:41.008Z,55.87
2023-01-19T00:58:08.457Z,55.78
2023-01-19T01:00:35.957Z,55.33
2023-01-19T01:03:04.131Z,55.50
2023-01-19T01:05:31.991Z,56.09
2023-01-19T01:07:59.491Z,55.98
2023-01-19T01:10:29.753Z,55.14
2023-01-19T01:12:59.239Z,55.40
2023-01-19T01:15:28.305Z,55.36
2023-01-19T01:17:55.958Z,55.20
2023-01-19T01:20:30.420Z,54.58
2023-01-19T01:22:58.906Z,55.46
2023-01-19T01:25:28.620Z,56.90
2023-01-19T01:27:56.156Z,55.89
2023-01-19T01:30:24.212Z,56.41
2023-01-19T01:32:51.638Z,56.51
2023-01-19T01:35:19.108Z,56.73
2023-01-19T01:37:46.663Z,54.80
2023-01-19T01:40:17.409Z,54.93
2023-01-19T01:42:45.743Z,55.21
2023-01-19T01:45:23.879Z,56.46
2023-01-19T01:47:53.182Z,56.56
2023-01-19T01:50:25.539Z,57.63
2023-01-19T01:53:06.630Z,57.72
2023-01-19T01:55:43.590Z,57.02
2023-01-19T01:58:12.863Z,56.40
2023-01-19T02:00:59.299Z,56.39
2023-01-19T02:03:28.766Z,56.04
2023-01-19T02:06:00.110Z,57.29
2023-01-19T02:09:05.654Z,55.83
2023-01-19T02:11:52.436Z,58.11
2023-01-19T02:14:20.170Z,57.70
2023-01-19T02:16:47.854Z,57.59
2023-01-19T02:19:35.551Z,57.20
2023-01-19T02:22:13.228Z,58.41
2023-01-19T02:24:41.493Z,58.41
2023-01-19T02:27:10.063Z,57.52
2023-01-19T02:29:37.779Z,58.49
2023-01-19T02:32:06.055Z,58.89
2023-01-19T02:34:33.687Z,59.66
2023-01-19T02:37:20.972Z,59.95
2023-01-19T02:39:55.962Z,60.51
2023-01-19T02:42:32.641Z,60.66
2023-01-19T02:45:00.231Z,59.66
2023-01-19T02:47:27.605Z,59.73
2023-01-19T02:49:59.361Z,59.24
2023-01-19T02:52:28.312Z,60.21
2023-01-19T02:55:18.536Z,60.57
2023-01-19T02:58:07.544Z,60.73
2023-01-19T03:00:45.315Z,59.53
2023-01-19T03:03:12.737Z,60.21
2023-01-19T03:06:15.965Z,60.68
2023-01-19T03:08:57.693Z,60.33
2023-01-19T03:11:32.383Z,60.21
2023-01-19T03:14:09.217Z,59.82
2023-01-19T03:16:45.846Z,59.48
2023-01-19T03:19:20.422Z,60.00
2023-01-19T03:21:52.706Z,60.54
2023-01-19T03:24:23.928Z,59.95
2023-01-19T03:27:12.651Z,59.61
2023-01-19T03:29:42.458Z,60.96
2023-01-19T03:32:14.823Z,60.92
2023-01-19T03:34:44.475Z,61.35
2023-01-19T03:37:14.487Z,61.79
2023-01-19T03:39:42.436Z,62.22
2023-01-19T03:42:14.801Z,62.70
2023-01-19T03:44:44.922Z,62.96
2023-01-19T03:47:14.984Z,62.96
2023-01-19T03:49:45.550Z,60.69
2023-01-19T03:52:13.150Z,60.63
2023-01-19T03:54:41.279Z,61.16
2023-01-19T03:57:08.758Z,61.23
2023-01-19T03:59:36.842Z,61.98
2023-01-19T04:02:04.308Z,61.13
2023-01-19T04:04:31.930Z,62.10
2023-01-19T04:09:41.650Z,61.96
2023-01-19T04:12:09.585Z,61.30
2023-01-19T04:14:38.575Z,60.59
2023-01-19T04:17:06.254Z,60.58
2023-01-19T04:19:33.683Z,60.80
2023-01-19T04:24:46.133Z,60.38
2023-01-19T04:27:15.477Z,59.15
2023-01-19T04:29:48.899Z,58.53
2023-01-19T04:32:17.639Z,59.60
2023-01-19T04:34:45.043Z,59.14
2023-01-19T04:37:12.751Z,59.41
2023-01-19T04:39:40.195Z,59.85
2023-01-19T04:42:08.200Z,59.00
2023-01-19T04:44:35.741Z,60.68
2023-01-19T04:47:03.653Z,61.42
2023-01-19T04:49:31.176Z,60.27
2023-01-19T04:51:58.560Z,60.13
2023-01-19T04:54:27.296Z,61.47
2023-01-19T04:56:55.337Z,61.25
2023-01-19T04:59:24.931Z,62.29
2023-01-19T05:01:52.947Z,61.55
2023-01-19T05:04:22.741Z,61.74
2023-01-19T05:06:52.063Z,61.70
2023-01-19T05:09:22.136Z,62.02
2023-01-19T05:11:49.666Z,62.02
2023-01-19T05:14:17.542Z,62.03
2023-01-19T05:16:46.517Z,60.84
2023-01-19T05:19:14.903Z,60.90
2023-01-19T05:21:42.925Z,60.63
2023-01-19T05:24:10.724Z,59.32
2023-01-19T05:26:38.981Z,60.91
2023-01-19T05:29:07.005Z,61.04
2023-01-19T05:31:35.913Z,61.79
2023-01-19T05:34:04.886Z,61.03
2023-01-19T05:36:32.718Z,61.52
2023-01-19T05:39:00.356Z,61.21
2023-01-19T05:41:28.685Z,61.39
2023-01-19T05:43:56.769Z,60.75
2023-01-19T05:46:27.297Z,60.45
2023-01-19T05:48:55.985Z,59.99
2023-01-19T05:51:25.045Z,60.93
2023-01-19T05:53:55.391Z,60.20
2023-01-19T05:56:24.207Z,60.75
2023-01-19T05:58:53.325Z,60.25
2023-01-19T06:01:21.837Z,60.19
2023-01-19T06:03:51.083Z,60.78
2023-01-19T06:06:19.142Z,61.45
2023-01-19T06:08:48.427Z,61.13
2023-01-19T06:11:16.537Z,60.41
2023-01-19T06:13:44.767Z,60.69
2023-01-19T06:16:13.013Z,59.36
2023-01-19T06:18:45.371Z,58.46
2023-01-19T06:21:16.267Z,57.41
2023-01-19T06:26:32.249Z,59.76
2023-01-19T06:29:00.094Z,59.32
2023-01-19T06:31:30.407Z,58.60
2023-01-19T06:33:58.150Z,57.92
2023-01-19T06:36:27.941Z,58.11
2023-01-19T06:38:58.410Z,57.62
2023-01-19T06:42:21.189Z,58.01
2023-01-19T06:45:07.741Z,57.68
2023-01-19T06:47:38.053Z,56.86
2023-01-19T06:50:09.503Z,57.13
2023-01-19T06:52:42.844Z,56.66
2023-01-19T06:55:13.653Z,56.22
2023-01-19T06:57:42.543Z,56.67
2023-01-19T07:00:14.874Z,57.65
2023-01-19T07:02:43.964Z,56.36
2023-01-19T07:08:13.597Z,56.51
2023-01-19T07:11:26.519Z,56.64
2023-01-19T07:13:29.804Z,54.87
2023-01-19T07:16:01.665Z,55.96
2023-01-19T07:18:29.861Z,56.58
2023-01-19T07:20:58.934Z,55.80
2023-01-19T07:23:31.233Z,55.85
2023-01-19T07:26:04.217Z,56.45
2023-01-19T07:28:38.512Z,56.36
2023-01-19T07:31:10.401Z,55.37
2023-01-19T07:33:47.555Z,57.01
2023-01-19T07:36:42.661Z,57.21
2023-01-19T07:42:17.825Z,55.88
2023-01-19T07:44:51.657Z,55.88
2023-01-19T07:47:20.065Z,56.19
2023-01-19T07:49:48.141Z,55.86
2023-01-19T07:52:15.665Z,55.54
2023-01-19T07:54:43.626Z,56.43
2023-01-19T07:57:12.418Z,57.19
2023-01-19T07:59:40.159Z,55.59
2023-01-19T08:02:10.915Z,55.41
2023-01-19T08:04:39.605Z,54.69
2023-01-19T08:07:07.711Z,54.88
2023-01-19T08:09:35.568Z,53.85
2023-01-19T08:12:05.364Z,55.31
2023-01-19T08:14:35.587Z,55.44
2023-01-19T08:17:06.584Z,54.85
2023-01-19T08:19:34.766Z,54.84
2023-01-19T08:22:04.379Z,54.27
2023-01-19T08:27:20.960Z,55.92
2023-01-19T08:29:50.155Z,56.47
2023-01-19T08:32:18.447Z,55.76
2023-01-19T08:34:57.887Z,56.18
2023-01-19T08:37:45.352Z,55.72
2023-01-19T08:40:13.719Z,54.05
2023-01-19T08:42:41.309Z,54.68
2023-01-19T08:45:09.724Z,55.29
2023-01-19T08:47:37.751Z,54.58
2023-01-19T08:50:06.753Z,54.12
2023-01-19T08:52:34.637Z,54.20
2023-01-19T08:55:02.307Z,54.19
2023-01-19T08:57:31.657Z,54.44
2023-01-19T09:00:01.560Z,53.76
2023-01-19T09:02:30.774Z,54.16
2023-01-19T09:04:58.568Z,53.64
2023-01-19T09:07:27.476Z,54.04
2023-01-19T09:09:56.940Z,54.18
2023-01-19T09:12:25.044Z,53.17
2023-01-19T09:14:53.364Z,53.52
2023-01-19T09:21:22.776Z,53.27
2023-01-19T09:23:51.376Z,53.83
2023-01-19T09:26:21.420Z,54.01
2023-01-19T09:28:50.991Z,53.53
2023-01-19T09:31:19.695Z,53.48
2023-01-19T09:33:47.616Z,53.42
2023-01-19T09:36:15.591Z,52.08
2023-01-19T09:38:44.187Z,51.70
2023-01-19T09:41:21.741Z,52.48
2023-01-19T09:43:59.964Z,52.13
2023-01-19T09:46:37.361Z,52.95
2023-01-19T09:49:15.041Z,52.52
2023-01-19T09:51:48.461Z,52.70
2023-01-19T09:54:24.475Z,53.14
2023-01-19T09:56:54.172Z,52.92
2023-01-19T09:59:33.079Z,52.84
2023-01-19T10:02:23.898Z,52.83
2023-01-19T10:05:05.967Z,52.93
2023-01-19T10:07:33.598Z,52.88
2023-01-19T10:10:18.610Z,52.48
2023-01-19T10:13:32.399Z,52.12
2023-01-19T10:16:34.280Z,52.81
2023-01-19T10:19:26.313Z,53.18
2023-01-19T10:21:58.270Z,52.99
2023-01-19T10:24:37.763Z,52.50
2023-01-19T10:27:21.526Z,52.32
2023-01-19T10:29:50.493Z,52.13
2023-01-19T10:32:21.488Z,51.54
2023-01-19T10:34:50.559Z,51.74
2023-01-19T10:37:18.154Z,51.93
2023-01-19T10:39:54.903Z,52.11
2023-01-19T10:42:22.526Z,51.15
2023-01-19T10:44:50.588Z,50.17
2023-01-19T10:47:21.961Z,50.16
2023-01-19T10:49:50.482Z,50.45
2023-01-19T10:52:31.010Z,49.69
2023-01-19T10:55:02.218Z,50.33
2023-01-19T10:57:38.127Z,50.43
2023-01-19T11:00:08.346Z,49.73
2023-01-19T11:02:36.358Z,50.36
2023-01-19T11:05:27.734Z,49.24
2023-01-19T11:07:56.684Z,48.77
2023-01-19T11:10:27.192Z,48.43
2023-01-19T11:13:01.685Z,48.56
2023-01-19T11:15:36.269Z,48.94
2023-01-19T11:18:07.144Z,49.49
2023-01-19T11:21:07.993Z,48.49
2023-01-19T11:23:51.580Z,48.22
2023-01-19T11:26:35.257Z,48.29
2023-01-19T11:29:05.650Z,49.59
2023-01-19T11:31:36.123Z,49.16
2023-01-19T11:34:25.243Z,49.11
2023-01-19T11:36:59.462Z,48.68
2023-01-19T11:39:29.644Z,47.99
2023-01-19T11:47:45.566Z,48.98
2023-01-19T11:50:28.406Z,48.11
2023-01-19T11:53:01.448Z,48.77
2023-01-19T11:55:49.184Z,49.32
2023-01-19T11:58:19.997Z,48.55
2023-01-19T12:01:16.230Z,48.65
2023-01-19T12:03:49.513Z,48.68
2023-01-19T12:06:24.966Z,48.87
2023-01-19T12:09:03.570Z,47.88
2023-01-19T12:11:43.775Z,48.53
2023-01-19T12:14:28.572Z,48.09
2023-01-19T12:17:00.184Z,48.53
2023-01-19T12:19:42.147Z,48.32
2023-01-19T12:22:16.198Z,48.30
2023-01-19T12:25:02.459Z,48.17
2023-01-19T12:27:44.904Z,48.21
2023-01-19T12:30:28.570Z,48.34
2023-01-19T12:33:27.661Z,48.18
2023-01-19T12:36:38.055Z,48.77
2023-01-19T12:39:08.915Z,48.50
2023-01-19T12:41:38.447Z,48.25
2023-01-19T12:44:16.604Z,48.09
2023-01-19T12:46:49.187Z,48.51
2023-01-19T12:49:45.241Z,48.55
2023-01-19T12:52:26.106Z,47.90
2023-01-19T12:54:57.934Z,48.72
2023-01-19T12:57:39.909Z,49.10
2023-01-19T13:00:08.148Z,48.38
2023-01-19T13:02:47.366Z,47.92
2023-01-19T13:05:33.705Z,48.68
2023-01-19T13:08:07.233Z,48.94
2023-01-19T13:11:00.723Z,48.94
2023-01-19T13:13:31.795Z,48.99
2023-01-19T13:16:21.705Z,48.90
2023-01-19T13:19:06.840Z,48.81
2023-01-19T13:21:34.560Z,49.20
2023-01-19T13:24:05.252Z,48.82
2023-01-19T13:26:39.829Z,48.60
2023-01-19T13:29:10.390Z,48.55
2023-01-19T13:31:41.105Z,49.80
2023-01-19T13:34:22.282Z,51.17
2023-01-19T13:37:00.825Z,52.20
2023-01-19T13:39:38.632Z,52.35
2023-01-19T13:42:13.915Z,52.36
2023-01-19T13:44:43.959Z,52.92
2023-01-19T13:47:21.600Z,53.38
2023-01-19T13:49:56.233Z,53.79
2023-01-19T13:52:27.259Z,54.74
2023-01-19T13:55:00.542Z,54.87
2023-01-19T13:57:51.919Z,54.89
2023-01-19T14:00:26.882Z,55.04
2023-01-19T14:02:59.602Z,54.25
2023-01-19T14:05:40.476Z,54.67
2023-01-19T14:08:11.579Z,55.00
2023-01-19T14:11:01.477Z,55.11
2023-01-19T14:13:40.481Z,54.79
2023-01-19T14:16:17.245Z,54.31
2023-01-19T14:18:44.749Z,53.86
2023-01-19T14:21:14.406Z,54.81
2023-01-19T14:23:47.962Z,55.02
2023-01-19T14:26:51.638Z,55.21
2023-01-19T14:29:29.555Z,56.07
2023-01-19T14:32:22.949Z,55.34
2023-01-19T14:35:13.918Z,54.76
2023-01-19T14:37:51.262Z,55.16
2023-01-19T14:40:22.211Z,56.19
2023-01-19T14:43:08.648Z,55.21
2023-01-19T14:45:40.752Z,54.90
2023-01-19T14:48:20.796Z,55.05
2023-01-19T14:51:02.730Z,55.32
2023-01-19T14:53:39.176Z,54.61
2023-01-19T14:56:07.701Z,53.85
2023-01-19T14:58:35.929Z,54.10
2023-01-19T15:01:04.443Z,54.82
2023-01-19T15:03:44.040Z,54.75
2023-01-19T15:06:17.739Z,54.87
2023-01-19T15:08:46.165Z,55.34
2023-01-19T15:11:21.452Z,54.73
2023-01-19T15:13:49.754Z,54.32
2023-01-19T15:16:17.524Z,54.14
2023-01-19T15:18:45.182Z,53.89
2023-01-19T15:21:19.834Z,54.88
2023-01-19T15:23:47.811Z,54.68
2023-01-19T15:26:21.248Z,55.46
2023-01-19T15:28:49.903Z,55.01
2023-01-19T15:31:19.875Z,55.61
2023-01-19T15:33:47.454Z,55.12
2023-01-19T15:36:18.057Z,56.06
2023-01-19T15:38:46.909Z,55.50
2023-01-19T15:41:24.104Z,56.30
2023-01-19T15:43:52.200Z,56.41
2023-01-19T15:46:23.855Z,56.44
2023-01-19T15:48:52.401Z,56.03
2023-01-19T15:51:22.615Z,56.87
2023-01-19T15:53:50.689Z,57.26
2023-01-19T15:56:24.884Z,57.27
2023-01-19T15:58:53.985Z,57.02
2023-01-19T16:01:22.586Z,57.09
2023-01-19T16:03:51.015Z,56.99
2023-01-19T16:06:18.952Z,58.15
2023-01-19T16:08:46.845Z,57.72
2023-01-19T16:11:15.586Z,57.75
2023-01-19T16:13:47.506Z,58.21
2023-01-19T16:16:17.600Z,58.23
2023-01-19T16:18:45.690Z,58.59
2023-01-19T16:21:13.041Z,58.12
2023-01-19T16:23:40.977Z,58.05
2023-01-19T16:26:25.311Z,58.73
2023-01-19T16:29:00.242Z,58.58
2023-01-19T16:31:28.729Z,58.41
2023-01-19T16:33:56.569Z,58.39
2023-01-19T16:36:30.195Z,58.85
2023-01-19T16:39:10.735Z,58.41
2023-01-19T16:41:38.744Z,58.02
2023-01-19T16:44:07.259Z,57.49
2023-01-19T16:46:37.196Z,57.72
2023-01-19T16:49:07.159Z,57.95
2023-01-19T16:51:34.647Z,58.31
2023-01-19T16:54:02.075Z,58.35
2023-01-19T16:56:30.823Z,58.33
2023-01-19T16:59:00.581Z,57.87
2023-01-19T17:01:29.659Z,57.61
2023-01-19T17:03:57.721Z,57.98
2023-01-19T17:06:25.780Z,58.57
2023-01-19T17:08:54.342Z,59.20
2023-01-19T17:11:43.353Z,57.07
2023-01-19T17:14:14.264Z,58.14
2023-01-19T17:16:48.947Z,58.56
2023-01-19T17:19:22.398Z,58.12
2023-01-19T17:21:50.227Z,58.19
2023-01-19T17:24:18.044Z,58.78
2023-01-19T17:26:49.040Z,59.14
2023-01-19T17:29:17.432Z,58.99
2023-01-19T17:31:47.663Z,58.83
2023-01-19T17:34:15.580Z,58.40
2023-01-19T17:36:44.359Z,58.75
2023-01-19T17:39:15.071Z,58.55
2023-01-19T17:41:42.545Z,58.90
2023-01-19T17:44:10.799Z,58.97
2023-01-19T17:46:39.284Z,59.31
2023-01-19T17:49:07.830Z,59.38
2023-01-19T17:51:35.489Z,59.08
2023-01-19T17:54:04.320Z,59.24
2023-01-19T17:56:36.980Z,59.21
2023-01-19T17:59:08.267Z,58.51
2023-01-19T18:01:40.087Z,58.71
2023-01-19T18:04:08.785Z,58.79
2023-01-19T18:06:38.047Z,58.92
2023-01-19T18:09:09.041Z,58.75
2023-01-19T18:11:36.605Z,58.58
2023-01-19T18:14:05.671Z,58.99
2023-01-19T18:16:33.282Z,58.47
2023-01-19T18:19:00.872Z,59.21
2023-01-19T18:21:33.413Z,60.14
2023-01-19T18:24:03.522Z,58.99
2023-01-19T18:26:34.149Z,58.78
2023-01-19T18:29:02.382Z,59.09
2023-01-19T18:31:31.155Z,58.86
2023-01-19T18:34:00.062Z,58.83
2023-01-19T18:36:27.839Z,59.11
2023-01-19T18:38:55.454Z,58.13
2023-01-19T18:41:22.888Z,57.86
2023-01-19T18:43:52.264Z,57.38
2023-01-19T18:46:19.844Z,56.82
2023-01-19T18:48:47.426Z,57.59
2023-01-19T18:51:16.297Z,57.36
2023-01-19T18:53:45.177Z,57.51
2023-01-19T18:58:59.745Z,57.20
2023-01-19T19:01:33.139Z,58.09
2023-01-19T19:04:02.517Z,58.17
2023-01-19T19:06:30.523Z,58.63
2023-01-19T19:08:59.508Z,58.52
2023-01-19T19:11:27.296Z,58.50
2023-01-19T19:13:58.203Z,58.81
2023-01-19T19:16:26.099Z,57.37
2023-01-19T19:18:53.671Z,57.08
2023-01-19T19:21:22.560Z,56.44
2023-01-19T19:23:51.328Z,56.93
2023-01-19T19:26:18.738Z,57.19
2023-01-19T19:28:47.582Z,57.60
2023-01-19T19:31:20.704Z,57.24
2023-01-19T19:33:49.422Z,57.60
2023-01-19T19:36:17.008Z,58.20
2023-01-19T19:38:47.877Z,58.43
2023-01-19T19:41:20.496Z,58.62
2023-01-19T19:43:48.495Z,58.46
2023-01-19T19:46:19.355Z,58.40
2023-01-19T19:48:48.022Z,57.19
2023-01-19T19:54:04.573Z,60.02
2023-01-19T19:56:34.376Z,59.64
2023-01-19T19:59:01.879Z,59.60
2023-01-19T20:01:33.717Z,59.09
2023-01-19T20:04:10.189Z,58.65
2023-01-19T20:06:40.221Z,59.08
2023-01-19T20:09:10.886Z,58.67
2023-01-19T20:11:39.392Z,58.83
2023-01-19T20:14:08.452Z,59.52
2023-01-19T20:16:47.833Z,59.52
2023-01-19T20:19:18.080Z,59.38
2023-01-19T20:21:52.775Z,59.15
2023-01-19T20:24:20.878Z,59.96
2023-01-19T20:26:52.432Z,61.10
2023-01-19T20:29:21.040Z,60.45
2023-01-19T20:31:53.956Z,60.93
2023-01-19T20:34:24.051Z,61.04
2023-01-19T20:37:02.022Z,61.68
2023-01-19T20:39:34.864Z,61.07
2023-01-19T20:44:49.986Z,61.12
2023-01-19T20:47:17.397Z,60.92
2023-01-19T20:49:44.793Z,60.71
2023-01-19T20:52:12.244Z,60.77
2023-01-19T20:54:40.232Z,61.20
2023-01-19T20:57:07.599Z,61.17
2023-01-19T20:59:37.177Z,61.39
2023-01-19T21:02:08.112Z,60.70
2023-01-19T21:04:35.596Z,59.98
2023-01-19T21:07:05.255Z,60.32
2023-01-19T21:09:32.706Z,61.03
2023-01-19T21:12:00.115Z,61.11
2023-01-19T21:14:27.871Z,61.37
2023-01-19T21:16:59.726Z,61.49
2023-01-19T21:19:27.208Z,61.21
2023-01-19T21:21:55.520Z,60.68
2023-01-19T21:24:28.577Z,60.75
2023-01-19T21:27:15.183Z,60.25
2023-01-19T21:29:42.535Z,60.24
2023-01-19T21:32:10.050Z,60.80
2023-01-19T21:34:37.648Z,60.79
2023-01-19T21:37:05.011Z,60.76
2023-01-19T21:39:32.321Z,60.86
2023-01-19T21:41:59.766Z,60.79
2023-01-19T21:44:27.314Z,60.29
2023-01-19T21:46:55.980Z,60.47
2023-01-19T21:49:23.476Z,59.86
2023-01-19T21:51:50.994Z,60.00
2023-01-19T21:54:19.123Z,59.77
2023-01-19T21:56:46.769Z,59.04
2023-01-19T21:59:15.555Z,59.76
2023-01-19T22:01:45.190Z,59.54
2023-01-19T22:04:12.799Z,59.45
2023-01-19T22:06:40.361Z,59.20
2023-01-19T22:09:08.214Z,58.16
2023-01-19T22:11:35.982Z,59.16
2023-01-19T22:14:03.506Z,59.49
2023-01-19T22:16:31.233Z,59.59
2023-01-19T22:19:02.408Z,59.85
2023-01-19T22:21:33.346Z,59.00
2023-01-19T22:24:02.493Z,59.57
2023-01-19T22:26:31.176Z,59.00
2023-01-19T22:29:00.351Z,58.82
2023-01-19T22:31:29.499Z,58.76
2023-01-19T22:33:57.623Z,59.07
2023-01-19T22:36:28.001Z,59.02
2023-01-19T22:39:16.717Z,59.41
2023-01-19T22:41:46.643Z,59.14
2023-01-19T22:44:21.241Z,59.57
2023-01-19T22:46:50.382Z,59.48
2023-01-19T22:49:18.086Z,58.43
2023-01-19T22:51:46.244Z,58.92
2023-01-19T22:54:14.244Z,59.96
2023-01-19T22:56:42.267Z,59.43
2023-01-19T22:59:15.127Z,59.62
2023-01-19T23:01:44.228Z,60.16
2023-01-19T23:04:16.271Z,59.21
2023-01-19T23:06:47.104Z,59.47
2023-01-19T23:09:15.568Z,59.25
2023-01-19T23:11:45.099Z,59.35
2023-01-19T23:14:19.741Z,59.24
2023-01-19T23:16:47.663Z,59.32
2023-01-19T23:19:17.380Z,59.16
2023-01-19T23:21:45.495Z,59.84
2023-01-19T23:24:13.122Z,58.77
2023-01-19T23:26:40.565Z,59.59
2023-01-19T23:29:12.009Z,58.99
2023-01-19T23:31:42.726Z,60.91
2023-01-19T23:34:12.562Z,60.13
2023-01-19T23:36:47.234Z,60.37
2023-01-19T23:39:17.213Z,60.48
2023-01-19T23:41:44.747Z,61.00
2023-01-19T23:44:12.183Z,60.40
2023-01-19T23:46:39.659Z,60.01
2023-01-19T23:49:07.249Z,59.66
2023-01-19T23:51:35.237Z,59.58
2023-01-19T23:54:02.811Z,59.42
2023-01-19T23:56:33.650Z,60.21
2023-01-19T23:59:06.399Z,60.27
